createdAt,value
2022-09-07T00:00:58.920Z,101487.91
2022-09-07T00:03:25.698Z,101489.63
2022-09-07T00:05:52.663Z,101487.13
2022-09-07T00:08:22.778Z,101469.88
2022-09-07T00:11:01.004Z,101477.63
2022-09-07T00:13:29.958Z,101465.59
2022-09-07T00:15:57.274Z,101468.91
2022-09-07T00:18:24.227Z,101471.50
2022-09-07T00:21:05.745Z,101467.06
2022-09-07T00:23:33.460Z,101469.38
2022-09-07T00:26:05.805Z,101462.38
2022-09-07T00:28:32.649Z,101470.91
2022-09-07T00:30:59.124Z,101454.41
2022-09-07T00:33:26.049Z,101466.31
2022-09-07T00:35:52.604Z,101462.69
2022-09-07T00:38:19.221Z,101456.69
2022-09-07T00:40:45.612Z,101458.53
2022-09-07T00:43:17.412Z,101454.28
2022-09-07T00:45:43.863Z,101455.13
2022-09-07T00:48:17.031Z,101459.44
2022-09-07T00:51:05.186Z,101455.94
2022-09-07T00:53:55.395Z,101451.69
2022-09-07T00:56:26.462Z,101464.63
2022-09-07T00:58:53.429Z,101461.13
2022-09-07T01:01:20.403Z,101473.09
2022-09-07T01:03:51.125Z,101479.97
2022-09-07T01:06:17.418Z,101497.03
2022-09-07T01:08:45.679Z,101514.00
2022-09-07T01:11:12.693Z,101513.75
2022-09-07T01:13:41.666Z,101521.50
2022-09-07T01:16:20.097Z,101521.50
2022-09-07T01:18:55.430Z,101524.78
2022-09-07T01:21:26.086Z,101523.81
2022-09-07T01:24:10.556Z,101528.84
2022-09-07T01:26:57.932Z,101532.19
2022-09-07T01:29:31.665Z,101538.41
2022-09-07T01:32:44.280Z,101524.09
2022-09-07T01:35:23.421Z,101538.63
2022-09-07T01:37:57.796Z,101543.88
2022-09-07T01:40:44.435Z,101529.19
2022-09-07T01:43:22.412Z,101514.38
2022-09-07T01:45:52.636Z,101516.88
2022-09-07T01:48:21.586Z,101515.00
2022-09-07T01:50:53.947Z,101499.66
2022-09-07T01:53:28.905Z,101481.72
2022-09-07T01:56:00.875Z,101473.16
2022-09-07T01:58:27.490Z,101461.00
2022-09-07T02:01:07.659Z,101445.56
2022-09-07T02:03:42.672Z,101437.63
2022-09-07T02:06:31.373Z,101435.06
2022-09-07T02:09:22.976Z,101427.28
2022-09-07T02:11:50.300Z,101422.28
2022-09-07T02:14:34.335Z,101424.31
2022-09-07T02:17:13.980Z,101432.13
2022-09-07T02:19:59.967Z,101430.47
2022-09-07T02:22:31.856Z,101430.47
2022-09-07T02:25:01.577Z,101423.69
2022-09-07T02:27:46.828Z,101421.84
2022-09-07T02:30:14.140Z,101426.91
2022-09-07T02:32:40.875Z,101417.53
2022-09-07T02:35:07.926Z,101406.47
2022-09-07T02:37:37.256Z,101407.47
2022-09-07T02:40:05.147Z,101415.34
2022-09-07T02:42:34.169Z,101411.16
2022-09-07T02:45:04.290Z,101409.41
2022-09-07T02:47:36.589Z,101411.16
2022-09-07T02:50:31.889Z,101405.19
2022-09-07T02:53:13.536Z,101406.09
2022-09-07T02:55:54.868Z,101406.34
2022-09-07T02:58:40.219Z,101414.91
2022-09-07T03:01:06.597Z,101420.72
2022-09-07T03:03:46.988Z,101428.47
2022-09-07T03:06:22.767Z,101433.56
2022-09-07T03:08:53.549Z,101430.88
2022-09-07T03:11:20.772Z,101428.16
2022-09-07T03:13:47.204Z,101423.69
2022-09-07T03:16:14.950Z,101425.22
2022-09-07T03:18:42.820Z,101420.75
2022-09-07T03:21:10.151Z,101418.16
2022-09-07T03:23:37.736Z,101421.34
2022-09-07T03:26:04.518Z,101423.81
2022-09-07T03:28:31.064Z,101425.75
2022-09-07T03:30:57.610Z,101423.25
2022-09-07T03:33:24.026Z,101428.44
2022-09-07T03:35:59.771Z,101421.50
2022-09-07T03:38:26.164Z,101420.94
2022-09-07T03:41:04.315Z,101416.56
2022-09-07T03:43:31.864Z,101412.19
2022-09-07T03:46:00.290Z,101402.84
2022-09-07T03:48:29.963Z,101395.97
2022-09-07T03:51:08.518Z,101385.63
2022-09-07T03:53:43.518Z,101373.75
2022-09-07T03:56:12.625Z,101351.59
2022-09-07T03:58:39.437Z,101355.22
2022-09-07T04:01:10.922Z,101358.66
2022-09-07T04:03:37.762Z,101379.50
2022-09-07T04:06:04.628Z,101387.91
2022-09-07T04:08:34.079Z,101395.84
2022-09-07T04:11:02.020Z,101388.16
2022-09-07T04:13:30.407Z,101380.47
2022-09-07T04:15:56.896Z,101385.22
2022-09-07T04:18:24.286Z,101387.81
2022-09-07T04:20:51.140Z,101398.16
2022-09-07T04:23:18.778Z,101399.19
2022-09-07T04:25:49.578Z,101399.28
2022-09-07T04:28:20.851Z,101403.69
2022-09-07T04:30:47.571Z,101404.78
2022-09-07T04:33:14.488Z,101414.47
2022-09-07T04:35:42.202Z,101406.06
2022-09-07T04:38:13.881Z,101404.38
2022-09-07T04:40:40.315Z,101407.94
2022-09-07T04:43:08.154Z,101409.63
2022-09-07T04:45:37.515Z,101402.78
2022-09-07T04:48:05.179Z,101398.50
2022-09-07T04:50:32.357Z,101403.25
2022-09-07T04:52:58.837Z,101403.69
2022-09-07T04:55:25.312Z,101406.34
2022-09-07T04:57:51.862Z,101402.06
2022-09-07T05:00:18.455Z,101397.78
2022-09-07T05:02:44.916Z,101401.16
2022-09-07T05:05:11.424Z,101392.63
2022-09-07T05:07:37.977Z,101397.00
2022-09-07T05:10:04.818Z,101392.63
2022-09-07T05:12:31.213Z,101391.84
2022-09-07T05:14:57.661Z,101391.84
2022-09-07T05:17:24.198Z,101401.22
2022-09-07T05:19:50.604Z,101397.78
2022-09-07T05:22:17.069Z,101395.13
2022-09-07T05:24:43.501Z,101394.16
2022-09-07T05:27:10.013Z,101372.53
2022-09-07T05:32:22.812Z,101381.50
2022-09-07T05:34:52.256Z,101385.66
2022-09-07T05:37:21.943Z,101385.59
2022-09-07T05:39:48.513Z,101388.16
2022-09-07T05:42:14.969Z,101393.34
2022-09-07T05:47:13.259Z,101397.00
2022-09-07T05:49:39.977Z,101404.75
2022-09-07T05:52:06.845Z,101398.19
2022-09-07T05:54:33.215Z,101396.53
2022-09-07T05:57:03.647Z,101398.28
2022-09-07T05:59:30.215Z,101398.28
2022-09-07T06:01:56.855Z,101411.19
2022-09-07T06:04:23.378Z,101409.50
2022-09-07T06:07:11.020Z,101418.09
2022-09-07T06:12:23.202Z,101429.59
2022-09-07T06:14:49.633Z,101433.00
2022-09-07T06:17:21.224Z,101429.66
2022-09-07T06:19:47.707Z,101430.56
2022-09-07T06:22:14.086Z,101427.19
2022-09-07T06:24:40.440Z,101429.75
2022-09-07T06:27:07.103Z,101433.00
2022-09-07T06:29:33.480Z,101428.63
2022-09-07T06:34:46.377Z,101437.84
2022-09-07T06:37:16.602Z,101440.38
2022-09-07T06:39:43.248Z,101442.69
2022-09-07T06:42:09.746Z,101434.63
2022-09-07T06:44:36.901Z,101437.75
2022-09-07T06:47:12.245Z,101437.44
2022-09-07T06:49:38.625Z,101430.88
2022-09-07T06:52:05.034Z,101433.03
2022-09-07T06:57:18.071Z,101433.88
2022-09-07T06:59:44.504Z,101436.31
2022-09-07T07:02:14.886Z,101445.69
2022-09-07T07:04:41.525Z,101446.03
2022-09-07T07:07:14.473Z,101448.34
2022-09-07T07:09:41.598Z,101444.56
2022-09-07T07:12:09.967Z,101446.72
2022-09-07T07:14:39.613Z,101442.63
2022-09-07T07:17:06.505Z,101442.41
2022-09-07T07:19:32.871Z,101436.78
2022-09-07T07:22:14.392Z,101432.66
2022-09-07T07:24:45.607Z,101435.78
2022-09-07T07:27:12.120Z,101442.63
2022-09-07T07:29:38.517Z,101441.19
2022-09-07T07:32:05.214Z,101442.31
2022-09-07T07:34:31.961Z,101446.31
2022-09-07T07:36:58.538Z,101447.66
2022-09-07T07:42:12.287Z,101458.63
2022-09-07T07:44:38.598Z,101470.00
2022-09-07T07:47:05.369Z,101457.25
2022-09-07T07:49:31.966Z,101457.81
2022-09-07T07:54:45.339Z,101463.47
2022-09-07T07:57:12.134Z,101461.13
2022-09-07T07:59:39.291Z,101467.69
2022-09-07T08:02:08.552Z,101466.00
2022-09-07T08:04:35.560Z,101464.84
2022-09-07T08:07:09.275Z,101469.78
2022-09-07T08:09:37.926Z,101477.56
2022-09-07T08:12:04.293Z,101476.47
2022-09-07T08:14:30.919Z,101473.81
2022-09-07T08:16:58.405Z,101483.28
2022-09-07T08:19:24.768Z,101482.19
2022-09-07T08:21:51.081Z,101482.94
2022-09-07T08:24:17.386Z,101486.78
2022-09-07T08:26:43.712Z,101491.50
2022-09-07T08:29:10.050Z,101487.31
2022-09-07T08:31:36.483Z,101485.69
2022-09-07T08:34:03.029Z,101478.75
2022-09-07T08:36:31.700Z,101481.81
2022-09-07T08:38:58.028Z,101484.31
2022-09-07T08:41:48.798Z,101480.84
2022-09-07T08:44:26.164Z,101488.22
2022-09-07T08:46:57.777Z,101494.72
2022-09-07T08:49:43.288Z,101496.16
2022-09-07T08:52:22.285Z,101498.28
2022-09-07T08:55:10.957Z,101497.63
2022-09-07T08:57:43.504Z,101491.53
2022-09-07T09:00:15.945Z,101493.13
2022-09-07T09:02:44.242Z,101489.97
2022-09-07T09:05:28.145Z,101490.16
2022-09-07T09:08:10.728Z,101495.13
2022-09-07T09:10:45.794Z,101502.34
2022-09-07T09:13:20.704Z,101496.28
2022-09-07T09:15:58.499Z,101489.16
2022-09-07T09:18:33.733Z,101496.78
2022-09-07T09:21:00.918Z,101500.06
2022-09-07T09:23:33.609Z,101497.34
2022-09-07T09:26:07.184Z,101493.47
2022-09-07T09:28:33.982Z,101500.50
2022-09-07T09:31:00.653Z,101495.75
2022-09-07T09:33:28.869Z,101490.88
2022-09-07T09:36:00.417Z,101496.59
2022-09-07T09:38:40.266Z,101494.56
2022-09-07T09:41:13.049Z,101498.28
2022-09-07T09:43:52.001Z,101495.88
2022-09-07T09:46:48.158Z,101489.44
2022-09-07T09:49:18.150Z,101495.00
2022-09-07T09:54:41.047Z,101496.72
2022-09-07T09:57:15.294Z,101487.28
2022-09-07T09:59:59.361Z,101487.59
2022-09-07T10:05:34.782Z,101478.53
2022-09-07T10:08:02.593Z,101477.81
2022-09-07T10:10:30.350Z,101477.72
2022-09-07T10:12:57.577Z,101475.44
2022-09-07T10:15:33.000Z,101480.22
2022-09-07T10:18:05.832Z,101476.59
2022-09-07T10:20:37.978Z,101476.59
2022-09-07T10:23:06.113Z,101477.81
2022-09-07T10:25:44.314Z,101466.75
2022-09-07T10:28:11.498Z,101476.00
2022-09-07T10:30:58.119Z,101472.91
2022-09-07T10:33:39.083Z,101479.97
2022-09-07T10:36:14.503Z,101477.41
2022-09-07T10:39:03.403Z,101484.13
2022-09-07T10:42:09.755Z,101472.13
2022-09-07T10:45:13.210Z,101468.34
2022-09-07T10:47:58.585Z,101464.53
2022-09-07T10:50:31.854Z,101471.69
2022-09-07T10:53:37.074Z,101472.38
2022-09-07T10:56:27.924Z,101472.13
2022-09-07T10:59:26.537Z,101462.19
2022-09-07T11:01:58.412Z,101469.63
2022-09-07T11:04:47.899Z,101467.75
2022-09-07T11:07:43.548Z,101457.50
2022-09-07T11:10:23.725Z,101463.88
2022-09-07T11:12:52.117Z,101462.00
2022-09-07T11:15:27.288Z,101459.28
2022-09-07T11:18:14.552Z,101457.97
2022-09-07T11:20:46.883Z,101459.09
2022-09-07T11:23:28.484Z,101461.41
2022-09-07T11:26:02.328Z,101457.44
2022-09-07T11:28:45.621Z,101456.91
2022-09-07T11:31:22.261Z,101458.69
2022-09-07T11:34:27.138Z,101461.91
2022-09-07T11:37:00.987Z,101455.69
2022-09-07T11:39:35.681Z,101455.34
2022-09-07T11:45:16.976Z,101470.00
2022-09-07T11:47:55.437Z,101466.50
2022-09-07T11:50:23.673Z,101466.88
2022-09-07T11:53:16.235Z,101462.63
2022-09-07T11:55:47.570Z,101454.19
2022-09-07T11:58:13.964Z,101454.66
2022-09-07T12:00:46.363Z,101458.44
2022-09-07T12:03:41.259Z,101451.28
2022-09-07T12:06:31.359Z,101446.94
2022-09-07T12:09:11.857Z,101455.56
2022-09-07T12:12:03.108Z,101449.91
2022-09-07T12:14:45.026Z,101444.41
2022-09-07T12:17:14.573Z,101441.53
2022-09-07T12:19:41.123Z,101435.47
2022-09-07T12:22:20.659Z,101439.97
2022-09-07T12:24:54.854Z,101437.22
2022-09-07T12:27:22.394Z,101439.97
2022-09-07T12:29:52.449Z,101435.78
2022-09-07T12:32:54.962Z,101437.66
2022-09-07T12:35:31.018Z,101430.84
2022-09-07T12:38:21.821Z,101426.38
2022-09-07T12:40:54.289Z,101432.22
2022-09-07T12:43:20.565Z,101436.94
2022-09-07T12:45:47.144Z,101423.84
2022-09-07T12:48:16.152Z,101418.38
2022-09-07T12:51:59.032Z,101411.44
2022-09-07T12:54:19.168Z,101413.38
2022-09-07T13:00:15.373Z,101404.78
2022-09-07T13:03:00.734Z,101412.94
2022-09-07T13:05:48.557Z,101396.47
2022-09-07T13:08:33.526Z,101398.97
2022-09-07T13:11:16.776Z,101387.81
2022-09-07T13:14:05.170Z,101387.16
2022-09-07T13:17:15.891Z,101384.38
2022-09-07T13:19:56.884Z,101380.78
2022-09-07T13:22:32.236Z,101375.78
2022-09-07T13:25:18.038Z,101371.31
2022-09-07T13:27:52.922Z,101376.06
2022-09-07T13:30:47.080Z,101382.03
2022-09-07T13:33:36.784Z,101381.19
2022-09-07T13:36:05.329Z,101377.84
2022-09-07T13:38:36.349Z,101367.19
2022-09-07T13:41:12.873Z,101374.34
2022-09-07T13:43:40.181Z,101374.38
2022-09-07T13:46:22.287Z,101372.06
2022-09-07T13:49:05.780Z,101362.38
2022-09-07T13:51:43.068Z,101362.28
2022-09-07T13:54:33.393Z,101362.94
2022-09-07T13:57:25.272Z,101368.41
2022-09-07T13:59:52.148Z,101369.97
2022-09-07T14:02:32.151Z,101369.47
2022-09-07T14:05:02.867Z,101372.34
2022-09-07T14:07:30.793Z,101363.09
2022-09-07T14:10:22.996Z,101365.88
2022-09-07T14:12:51.058Z,101362.91
2022-09-07T14:15:32.305Z,101362.03
2022-09-07T14:18:30.186Z,101356.63
2022-09-07T14:20:57.325Z,101362.75
2022-09-07T14:23:30.191Z,101360.56
2022-09-07T14:26:16.567Z,101362.00
2022-09-07T14:28:45.873Z,101364.59
2022-09-07T14:31:15.272Z,101359.16
2022-09-07T14:33:51.104Z,101360.00
2022-09-07T14:36:41.840Z,101359.31
2022-09-07T14:39:07.055Z,101357.28
2022-09-07T14:41:38.349Z,101352.97
2022-09-07T14:44:04.847Z,101353.81
2022-09-07T14:46:34.065Z,101347.31
2022-09-07T14:49:04.877Z,101357.56
2022-09-07T14:51:36.427Z,101352.56
2022-09-07T14:54:07.696Z,101350.25
2022-09-07T14:56:40.100Z,101345.44
2022-09-07T14:59:26.429Z,101343.50
2022-09-07T15:02:18.543Z,101349.94
2022-09-07T15:04:45.909Z,101343.75
2022-09-07T15:07:41.074Z,101341.03
2022-09-07T15:10:23.554Z,101339.53
2022-09-07T15:12:55.369Z,101335.25
2022-09-07T15:15:28.899Z,101320.78
2022-09-07T15:18:01.837Z,101327.72
2022-09-07T15:20:34.944Z,101335.09
2022-09-07T15:23:08.301Z,101324.72
2022-09-07T15:25:35.305Z,101327.19
2022-09-07T15:28:01.960Z,101328.84
2022-09-07T15:30:28.481Z,101313.72
2022-09-07T15:32:56.902Z,101310.34
2022-09-07T15:35:23.719Z,101317.78
2022-09-07T15:38:58.844Z,101320.00
2022-09-07T15:41:21.969Z,101321.69
2022-09-07T15:43:44.018Z,101324.06
2022-09-07T15:46:10.874Z,101318.28
2022-09-07T15:48:53.114Z,101317.72
2022-09-07T15:54:12.168Z,101321.34
2022-09-07T15:56:40.061Z,101313.97
2022-09-07T15:59:06.811Z,101318.69
2022-09-07T16:01:52.043Z,101315.78
2022-09-07T16:04:23.518Z,101319.22
2022-09-07T16:08:24.940Z,101319.22
2022-09-07T16:10:10.763Z,101317.72
2022-09-07T16:15:27.027Z,101311.63
2022-09-07T16:18:38.026Z,101307.81
2022-09-07T16:21:18.561Z,101306.31
2022-09-07T16:23:53.735Z,101301.63
2022-09-07T16:26:24.252Z,101295.03
2022-09-07T16:28:54.623Z,101307.22
2022-09-07T16:31:26.840Z,101302.22
2022-09-07T16:33:53.886Z,101296.97
2022-09-07T16:36:23.507Z,101294.06
2022-09-07T16:39:00.352Z,101297.75
2022-09-07T16:41:29.400Z,101295.53
2022-09-07T16:43:56.270Z,101297.78
2022-09-07T16:46:25.587Z,101295.88
2022-09-07T16:48:52.882Z,101287.88
2022-09-07T16:51:21.438Z,101285.38
2022-09-07T16:53:50.206Z,101280.66
2022-09-07T16:56:18.925Z,101286.31
2022-09-07T16:58:50.963Z,101284.81
2022-09-07T17:01:20.658Z,101286.19
2022-09-07T17:03:49.504Z,101290.34
2022-09-07T17:06:17.321Z,101291.47
2022-09-07T17:08:44.727Z,101290.75
2022-09-07T17:11:19.840Z,101294.16
2022-09-07T17:13:47.619Z,101284.34
2022-09-07T17:16:16.854Z,101282.25
2022-09-07T17:21:33.166Z,101289.69
2022-09-07T17:24:00.576Z,101288.53
2022-09-07T17:26:27.444Z,101294.03
2022-09-07T17:29:00.334Z,101287.56
2022-09-07T17:34:22.373Z,101284.09
2022-09-07T17:36:48.864Z,101288.94
2022-09-07T17:39:17.751Z,101289.38
2022-09-07T17:41:45.662Z,101286.22
2022-09-07T17:44:12.502Z,101285.81
2022-09-07T17:46:38.899Z,101289.66
2022-09-07T17:49:07.815Z,101287.31
2022-09-07T17:51:35.661Z,101283.78
2022-09-07T17:54:09.611Z,101288.75
2022-09-07T17:56:36.503Z,101277.13
2022-09-07T18:01:49.832Z,101283.44
2022-09-07T18:04:17.320Z,101278.72
2022-09-07T18:06:44.059Z,101286.50
2022-09-07T18:09:11.856Z,101283.81
2022-09-07T18:11:47.104Z,101278.88
2022-09-07T18:14:14.803Z,101280.22
2022-09-07T18:16:42.386Z,101276.72
2022-09-07T18:19:08.955Z,101277.19
2022-09-07T18:21:37.269Z,101276.81
2022-09-07T18:24:07.568Z,101273.28
2022-09-07T18:26:38.269Z,101274.25
2022-09-07T18:29:13.036Z,101277.72
2022-09-07T18:31:45.839Z,101275.66
2022-09-07T18:34:12.548Z,101270.56
2022-09-07T18:36:43.681Z,101272.84
2022-09-07T18:39:10.319Z,101273.53
2022-09-07T18:41:39.229Z,101276.38
2022-09-07T18:45:26.980Z,101279.09
2022-09-07T18:46:53.843Z,101281.56
2022-09-07T18:49:20.417Z,101282.53
2022-09-07T18:54:33.231Z,101282.22
2022-09-07T18:57:00.690Z,101285.72
2022-09-07T18:59:27.055Z,101282.41
2022-09-07T19:01:54.103Z,101284.25
2022-09-07T19:04:21.170Z,101278.31
2022-09-07T19:06:48.166Z,101277.81
2022-09-07T19:09:14.792Z,101270.75
2022-09-07T19:11:42.438Z,101272.09
2022-09-07T19:14:09.402Z,101266.47
2022-09-07T19:16:36.361Z,101266.84
2022-09-07T19:19:06.160Z,101267.72
2022-09-07T19:21:38.869Z,101278.63
2022-09-07T19:24:07.540Z,101282.88
2022-09-07T19:26:36.796Z,101280.34
2022-09-07T19:29:06.867Z,101278.03
2022-09-07T19:31:33.316Z,101284.72
2022-09-07T19:34:01.707Z,101283.25
2022-09-07T19:36:30.186Z,101284.09
2022-09-07T19:38:56.934Z,101286.50
2022-09-07T19:41:23.679Z,101287.59
2022-09-07T19:43:50.118Z,101288.44
2022-09-07T19:46:22.694Z,101283.78
2022-09-07T19:48:56.132Z,101291.78
2022-09-07T19:51:22.718Z,101280.81
2022-09-07T19:53:49.272Z,101287.03
2022-09-07T19:56:24.161Z,101281.56
2022-09-07T19:59:01.350Z,101282.69
2022-09-07T20:01:28.479Z,101278.66
2022-09-07T20:04:00.207Z,101272.84
2022-09-07T20:06:27.762Z,101270.50
2022-09-07T20:09:01.259Z,101266.78
2022-09-07T20:11:31.129Z,101268.81
2022-09-07T20:13:57.530Z,101263.91
2022-09-07T20:16:25.205Z,101261.28
2022-09-07T20:18:59.261Z,101261.41
2022-09-07T20:21:26.253Z,101257.94
2022-09-07T20:23:53.002Z,101259.03
2022-09-07T20:26:21.177Z,101264.00
2022-09-07T20:29:29.186Z,101253.97
2022-09-07T20:31:57.876Z,101244.31
2022-09-07T20:34:24.626Z,101240.25
2022-09-07T20:36:51.871Z,101234.66
2022-09-07T20:39:19.521Z,101234.09
2022-09-07T20:41:46.521Z,101233.59
2022-09-07T20:44:14.197Z,101224.59
2022-09-07T20:46:40.829Z,101233.72
2022-09-07T20:49:07.353Z,101231.22
2022-09-07T20:51:33.794Z,101233.91
2022-09-07T20:54:00.172Z,101230.16
2022-09-07T20:56:28.063Z,101228.97
2022-09-07T20:59:06.898Z,101234.50
2022-09-07T21:01:35.118Z,101236.81
2022-09-07T21:04:02.041Z,101236.97
2022-09-07T21:06:32.855Z,101227.28
2022-09-07T21:09:08.428Z,101234.13
2022-09-07T21:11:35.686Z,101234.47
2022-09-07T21:14:10.423Z,101231.88
2022-09-07T21:16:36.902Z,101234.38
2022-09-07T21:19:05.956Z,101225.94
2022-09-07T21:21:39.264Z,101226.34
2022-09-07T21:24:16.778Z,101230.63
2022-09-07T21:26:43.169Z,101225.75
2022-09-07T21:29:15.518Z,101225.00
2022-09-07T21:31:41.990Z,101221.59
2022-09-07T21:34:09.085Z,101223.00
2022-09-07T21:36:36.567Z,101222.78
2022-09-07T21:39:03.253Z,101218.41
2022-09-07T21:41:30.398Z,101211.50
2022-09-07T21:43:58.462Z,101209.72
2022-09-07T21:46:26.275Z,101212.56
2022-09-07T21:48:53.030Z,101207.47
2022-09-07T21:51:19.643Z,101195.50
2022-09-07T21:53:51.680Z,101192.78
2022-09-07T21:56:18.079Z,101195.38
2022-09-07T21:58:44.918Z,101195.59
2022-09-07T22:01:19.227Z,101199.94
2022-09-07T22:03:48.032Z,101199.78
2022-09-07T22:06:15.192Z,101194.59
2022-09-07T22:08:42.870Z,101202.13
2022-09-07T22:11:13.267Z,101197.94
2022-09-07T22:13:40.389Z,101197.50
2022-09-07T22:16:07.364Z,101200.34
2022-09-07T22:18:37.367Z,101195.19
2022-09-07T22:21:06.230Z,101191.50
2022-09-07T22:23:34.471Z,101184.41
2022-09-07T22:26:01.746Z,101186.22
2022-09-07T22:28:31.765Z,101184.66
2022-09-07T22:31:10.397Z,101187.16
2022-09-07T22:33:37.128Z,101183.41
2022-09-07T22:36:15.034Z,101184.66
2022-09-07T22:38:42.780Z,101184.59
2022-09-07T22:41:12.192Z,101184.91
2022-09-07T22:43:39.140Z,101178.88
2022-09-07T22:46:06.771Z,101191.09
2022-09-07T22:48:35.203Z,101191.09
2022-09-07T22:51:02.795Z,101192.69
2022-09-07T22:53:32.578Z,101182.50
2022-09-07T22:56:00.046Z,101172.13
2022-09-07T22:58:29.035Z,101174.78
2022-09-07T23:01:01.504Z,101175.66
2022-09-07T23:03:28.888Z,101162.78
2022-09-07T23:05:55.619Z,101150.75
2022-09-07T23:08:22.131Z,101151.31
2022-09-07T23:10:48.763Z,101153.16
2022-09-07T23:13:16.815Z,101147.38
2022-09-07T23:15:43.694Z,101140.28
2022-09-07T23:18:18.175Z,101140.38
2022-09-07T23:20:44.896Z,101145.28
2022-09-07T23:23:13.216Z,101138.53
2022-09-07T23:25:41.322Z,101132.34
2022-09-07T23:28:11.915Z,101132.09
2022-09-07T23:30:40.508Z,101132.78
2022-09-07T23:33:07.431Z,101123.47
2022-09-07T23:35:33.853Z,101124.34
2022-09-07T23:38:00.522Z,101117.56
2022-09-07T23:40:28.878Z,101117.56
2022-09-07T23:42:55.222Z,101118.97
2022-09-07T23:45:22.380Z,101106.69
2022-09-07T23:47:48.962Z,101109.38
2022-09-07T23:50:15.432Z,101109.47
2022-09-07T23:52:42.011Z,101113.56
2022-09-07T23:55:10.170Z,101109.19
2022-09-07T23:57:37.867Z,101091.81
